Main page
METAR-TAF:

METAR-TAF

Airports :

Kota Airport

Kota, India

latitude: 25-09-36N, longitude: 075-50-44E, elevation: 273 m

METAR: missing

Time: 05:45 (00:15 UTC)

Forecast

The report was made 1 hour and 15 minutes ago, at 23:00 UTC
Forecast valid from 20 at 00 UTC to 20 at 09 UTC
Wind 6 kt from the West
Visibility: 4000 m
Few clouds at a height of 10000 ft
haze
Becoming
from 20 at 03 UTC to 20 at 05 UTC
Wind 10 kt from the West
Visibility: 5000 m
haze,

TAF: VIKO 192300Z 2000/2009 28006KT 4000 HZ FEW100 BECMG 2003/2005 27010KT 5000 HZ

Weather observations and forecasts of more than 4000 airports (METAR and TAF reports).

The available stations are represented by yellow and red dots on the map.

Hover mouse over dot to see the name of the station.

Then click to see weather observations and forecasts.

To change the map : click on the green buttons with a black cross to zoom in, on the green button with a dash to zoom out, or on the green arrows for adjacent maps.


METAR-TAF: